createdAt,value
2023-04-19T00:00:09.209Z,99.90
2023-04-19T00:02:42.850Z,99.90
2023-04-19T00:05:13.561Z,99.90
2023-04-19T00:07:41.703Z,99.90
2023-04-19T00:10:11.389Z,99.90
2023-04-19T00:12:39.555Z,99.90
2023-04-19T00:15:08.781Z,99.90
2023-04-19T00:17:36.790Z,99.90
2023-04-19T00:20:08.301Z,99.90
2023-04-19T00:22:36.309Z,99.90
2023-04-19T00:25:04.626Z,99.90
2023-04-19T00:27:32.602Z,99.90
2023-04-19T00:30:00.912Z,99.90
2023-04-19T00:32:28.850Z,99.90
2023-04-19T00:34:58.828Z,99.90
2023-04-19T00:37:28.204Z,99.90
2023-04-19T00:39:56.094Z,99.90
2023-04-19T00:42:23.998Z,99.90
2023-04-19T00:44:51.865Z,99.90
2023-04-19T00:47:20.014Z,99.90
2023-04-19T00:49:48.176Z,99.90
2023-04-19T00:52:17.804Z,99.90
2023-04-19T00:54:47.400Z,99.90
2023-04-19T00:57:16.571Z,99.90
2023-04-19T00:59:44.889Z,99.90
2023-04-19T01:02:12.921Z,99.90
2023-04-19T01:04:41.040Z,99.90
2023-04-19T01:07:09.984Z,99.90
2023-04-19T01:09:42.027Z,99.90
2023-04-19T01:12:11.439Z,99.90
2023-04-19T01:14:39.338Z,99.90
2023-04-19T01:17:08.442Z,99.90
2023-04-19T01:19:37.079Z,99.90
2023-04-19T01:22:06.478Z,99.90
2023-04-19T01:24:35.805Z,99.90
2023-04-19T01:27:03.749Z,99.90
2023-04-19T01:29:31.976Z,99.90
2023-04-19T01:31:59.888Z,99.90
2023-04-19T01:34:28.536Z,99.90
2023-04-19T01:36:56.402Z,99.90
2023-04-19T01:39:27.277Z,99.90
2023-04-19T01:41:56.538Z,99.90
2023-04-19T01:44:24.676Z,99.90
2023-04-19T01:46:52.678Z,99.90
2023-04-19T01:49:20.603Z,99.90
2023-04-19T01:51:50.123Z,99.90
2023-04-19T01:54:18.688Z,99.90
2023-04-19T01:56:46.624Z,99.90
2023-04-19T01:59:16.486Z,99.90
2023-04-19T02:01:44.652Z,99.90
2023-04-19T02:04:12.795Z,99.90
2023-04-19T02:06:40.956Z,99.90
2023-04-19T02:09:09.464Z,99.90
2023-04-19T02:11:37.318Z,99.90
2023-04-19T02:14:05.708Z,99.90
2023-04-19T02:16:36.238Z,99.90
2023-04-19T02:19:04.669Z,99.90
2023-04-19T02:21:34.141Z,99.90
2023-04-19T02:24:02.762Z,99.90
2023-04-19T02:26:30.648Z,99.90
2023-04-19T02:28:58.659Z,99.90
2023-04-19T02:31:26.986Z,99.90
2023-04-19T02:33:56.232Z,99.90
2023-04-19T02:36:24.213Z,99.90
2023-04-19T02:38:52.091Z,99.90
2023-04-19T02:41:21.357Z,99.90
2023-04-19T02:43:49.196Z,99.90
2023-04-19T02:46:17.203Z,99.90
2023-04-19T02:48:45.429Z,99.90
2023-04-19T02:51:17.791Z,99.90
2023-04-19T02:53:45.860Z,99.90
2023-04-19T02:56:13.797Z,99.90
2023-04-19T02:58:41.816Z,99.90
2023-04-19T03:01:10.596Z,99.90
2023-04-19T03:03:38.764Z,99.90
2023-04-19T03:06:07.174Z,99.90
2023-04-19T03:08:36.492Z,99.90
2023-04-19T03:11:04.463Z,99.90
2023-04-19T03:13:32.369Z,99.90
2023-04-19T03:16:00.354Z,99.90
2023-04-19T03:18:29.703Z,99.90
2023-04-19T03:20:58.665Z,99.90
2023-04-19T03:23:30.908Z,99.90
2023-04-19T03:26:02.502Z,99.90
2023-04-19T03:28:39.468Z,99.90
2023-04-19T03:31:30.358Z,99.90
2023-04-19T03:34:02.533Z,99.90
2023-04-19T03:36:36.472Z,99.90
2023-04-19T03:39:04.776Z,99.90
2023-04-19T03:41:34.323Z,99.90
2023-04-19T03:44:12.399Z,99.90
2023-04-19T03:46:46.444Z,99.90
2023-04-19T03:49:19.372Z,99.90
2023-04-19T03:51:52.200Z,99.90
2023-04-19T03:54:20.374Z,99.90
2023-04-19T03:56:49.562Z,99.90
2023-04-19T03:59:17.799Z,99.90
2023-04-19T04:01:45.882Z,99.90
2023-04-19T04:04:14.516Z,99.90
2023-04-19T04:06:42.956Z,99.90
2023-04-19T04:09:11.047Z,99.90
2023-04-19T04:11:38.970Z,99.90
2023-04-19T04:14:08.577Z,99.90
2023-04-19T04:16:39.275Z,99.90
2023-04-19T04:19:08.141Z,99.90
2023-04-19T04:21:39.629Z,99.90
2023-04-19T04:24:09.776Z,99.90
2023-04-19T04:26:44.672Z,99.90
2023-04-19T04:29:26.280Z,99.90
2023-04-19T04:31:57.984Z,99.90
2023-04-19T04:34:31.342Z,99.90
2023-04-19T04:37:08.744Z,99.90
2023-04-19T04:39:39.330Z,99.90
2023-04-19T04:42:08.936Z,99.90
2023-04-19T04:44:38.883Z,99.90
2023-04-19T04:47:08.132Z,99.90
2023-04-19T04:49:42.202Z,99.90
2023-04-19T04:52:10.219Z,99.90
2023-04-19T04:54:47.210Z,99.90
2023-04-19T04:57:23.682Z,99.90
2023-04-19T04:59:53.350Z,99.90
2023-04-19T05:02:24.037Z,99.90
2023-04-19T05:04:52.973Z,99.90
2023-04-19T05:07:20.921Z,99.90
2023-04-19T05:09:48.853Z,99.90
2023-04-19T05:12:21.733Z,99.90
2023-04-19T05:14:49.972Z,99.90
2023-04-19T05:17:19.240Z,99.90
2023-04-19T05:19:47.736Z,99.90
2023-04-19T05:22:15.733Z,99.90
2023-04-19T05:24:43.812Z,99.90
2023-04-19T05:27:11.774Z,99.90
2023-04-19T05:29:39.685Z,99.90
2023-04-19T05:32:07.973Z,99.90
2023-04-19T05:34:44.860Z,99.90
2023-04-19T05:37:18.312Z,99.90
2023-04-19T05:39:46.210Z,99.90
2023-04-19T05:42:14.092Z,99.90
2023-04-19T05:44:42.370Z,99.90
2023-04-19T05:47:10.435Z,99.90
2023-04-19T05:49:58.744Z,99.90
2023-04-19T05:52:32.165Z,99.90
2023-04-19T05:55:01.430Z,99.90
2023-04-19T05:57:29.443Z,99.90
2023-04-19T05:59:57.481Z,99.90
2023-04-19T06:02:30.679Z,99.90
2023-04-19T06:05:02.757Z,99.90
2023-04-19T06:07:40.580Z,99.90
2023-04-19T06:10:15.246Z,99.90
2023-04-19T06:12:43.436Z,99.90
2023-04-19T06:15:12.815Z,99.90
2023-04-19T06:17:41.175Z,99.90
2023-04-19T06:20:12.413Z,99.90
2023-04-19T06:22:44.949Z,99.90
2023-04-19T06:25:13.089Z,99.90
2023-04-19T06:27:41.319Z,99.90
2023-04-19T06:30:10.232Z,99.90
2023-04-19T06:32:38.151Z,99.90
2023-04-19T06:35:08.219Z,99.90
2023-04-19T06:37:37.654Z,99.90
2023-04-19T06:40:08.354Z,99.90
2023-04-19T06:42:36.306Z,99.90
2023-04-19T06:45:05.621Z,99.90
2023-04-19T06:47:35.382Z,99.90
2023-04-19T06:50:03.695Z,99.90
2023-04-19T06:52:31.594Z,99.90
2023-04-19T06:55:01.315Z,99.90
2023-04-19T06:57:29.213Z,99.90
2023-04-19T06:59:58.221Z,99.90
2023-04-19T07:02:26.479Z,99.90
2023-04-19T07:04:54.457Z,99.90
2023-04-19T07:07:22.349Z,99.90
2023-04-19T07:09:50.242Z,99.90
2023-04-19T07:12:20.686Z,99.90
2023-04-19T07:14:48.552Z,99.90
2023-04-19T07:17:18.172Z,99.90
2023-04-19T07:19:48.772Z,99.90
2023-04-19T07:22:16.688Z,99.90
2023-04-19T07:24:44.780Z,99.90
2023-04-19T07:27:14.292Z,99.90
2023-04-19T07:29:43.581Z,99.90
2023-04-19T07:32:11.602Z,99.90
2023-04-19T07:34:41.164Z,99.90
2023-04-19T07:37:09.196Z,99.90
2023-04-19T07:39:39.960Z,99.90
2023-04-19T07:42:07.863Z,99.90
2023-04-19T07:44:35.825Z,99.90
2023-04-19T07:47:06.147Z,99.90
2023-04-19T07:49:34.732Z,99.60
2023-04-19T07:52:03.041Z,99.30
2023-04-19T07:54:32.226Z,98.60
2023-04-19T07:57:00.147Z,99.20
2023-04-19T07:59:28.006Z,99.90
2023-04-19T08:01:55.985Z,97.80
2023-04-19T08:04:28.842Z,96.90
2023-04-19T08:06:56.983Z,98.60
2023-04-19T08:09:25.411Z,96.60
2023-04-19T08:11:53.586Z,96.00
2023-04-19T08:14:34.788Z,96.20
2023-04-19T08:17:22.219Z,97.20
2023-04-19T08:19:53.932Z,98.40
2023-04-19T08:22:22.524Z,97.50
2023-04-19T08:24:51.875Z,97.40
2023-04-19T08:27:21.198Z,97.40
2023-04-19T08:29:49.174Z,96.20
2023-04-19T08:32:17.102Z,96.60
2023-04-19T08:34:46.470Z,95.90
2023-04-19T08:37:15.929Z,95.50
2023-04-19T08:39:43.806Z,94.30
2023-04-19T08:42:24.797Z,93.00
2023-04-19T08:47:48.110Z,92.20
2023-04-19T08:50:33.570Z,90.50
2023-04-19T08:53:20.998Z,91.80
2023-04-19T08:58:44.449Z,93.10
2023-04-19T09:01:33.835Z,93.60
2023-04-19T09:04:26.273Z,91.70
2023-04-19T09:06:53.940Z,91.00
2023-04-19T09:11:58.363Z,86.80
2023-04-19T09:14:29.817Z,86.50
2023-04-19T09:17:15.755Z,89.60
2023-04-19T09:19:48.355Z,86.00
2023-04-19T09:22:16.661Z,90.70
2023-04-19T09:27:26.932Z,92.20
2023-04-19T09:29:56.247Z,91.90
2023-04-19T09:32:24.948Z,92.30
2023-04-19T09:34:55.670Z,94.40
2023-04-19T09:39:56.956Z,95.90
2023-04-19T09:42:42.653Z,95.70
2023-04-19T09:45:29.242Z,93.60
2023-04-19T09:48:08.194Z,92.10
2023-04-19T09:50:46.757Z,92.40
2023-04-19T09:53:24.361Z,92.90
2023-04-19T09:56:01.671Z,92.80
2023-04-19T09:58:46.130Z,94.00
2023-04-19T10:01:19.686Z,95.10
2023-04-19T10:03:51.593Z,95.00
2023-04-19T10:08:55.812Z,93.60
2023-04-19T10:11:33.033Z,91.50
2023-04-19T10:14:07.942Z,89.00
2023-04-19T10:16:37.524Z,93.20
2023-04-19T10:19:10.284Z,92.30
2023-04-19T10:21:40.706Z,91.20
2023-04-19T10:24:10.952Z,88.00
2023-04-19T10:27:12.296Z,86.50
2023-04-19T10:29:57.000Z,90.40
2023-04-19T10:32:27.619Z,85.20
2023-04-19T10:34:55.594Z,86.80
2023-04-19T10:37:26.224Z,88.60
2023-04-19T10:39:54.532Z,90.20
2023-04-19T10:42:23.767Z,90.40
2023-04-19T10:45:33.909Z,91.00
2023-04-19T10:48:04.525Z,91.80
2023-04-19T10:50:59.560Z,93.40
2023-04-19T10:53:58.350Z,94.90
2023-04-19T10:57:00.166Z,94.80
2023-04-19T10:59:31.363Z,96.40
2023-04-19T11:02:01.803Z,95.00
2023-04-19T11:05:03.880Z,93.60
2023-04-19T11:07:40.814Z,94.00
2023-04-19T11:10:11.482Z,94.10
2023-04-19T11:12:44.749Z,94.20
2023-04-19T11:15:14.024Z,94.70
2023-04-19T11:17:42.642Z,95.60
2023-04-19T11:20:13.468Z,94.50
2023-04-19T11:22:43.799Z,93.50
2023-04-19T11:25:14.336Z,92.10
2023-04-19T11:27:44.153Z,91.10
2023-04-19T11:30:16.621Z,93.30
2023-04-19T11:32:48.953Z,92.60
2023-04-19T11:35:21.403Z,90.80
2023-04-19T11:37:49.943Z,90.10
2023-04-19T11:40:19.755Z,85.80
2023-04-19T11:42:53.536Z,85.80
2023-04-19T11:45:32.251Z,85.40
2023-04-19T11:48:02.012Z,85.30
2023-04-19T11:50:36.858Z,82.60
2023-04-19T11:53:14.941Z,86.20
2023-04-19T11:55:47.887Z,80.10
2023-04-19T11:58:32.001Z,79.80
2023-04-19T12:01:08.287Z,80.00
2023-04-19T12:03:40.982Z,82.90
2023-04-19T12:06:13.662Z,86.30
2023-04-19T12:08:47.010Z,82.60
2023-04-19T12:11:16.272Z,83.70
2023-04-19T12:13:44.867Z,84.10
2023-04-19T12:16:15.237Z,82.30
2023-04-19T12:18:45.838Z,80.60
2023-04-19T12:21:27.188Z,81.40
2023-04-19T12:23:57.278Z,84.50
2023-04-19T12:26:25.660Z,81.50
2023-04-19T12:28:54.762Z,82.90
2023-04-19T12:31:24.650Z,81.60
2023-04-19T12:33:52.848Z,83.90
2023-04-19T12:36:22.265Z,83.50
2023-04-19T12:38:50.217Z,83.30
2023-04-19T12:41:18.100Z,85.40
2023-04-19T12:43:46.280Z,84.90
2023-04-19T12:46:14.342Z,90.50
2023-04-19T12:48:43.597Z,89.90
2023-04-19T12:51:11.707Z,91.30
2023-04-19T12:53:39.572Z,92.10
2023-04-19T12:56:07.710Z,90.30
2023-04-19T12:58:35.597Z,90.10
2023-04-19T13:01:03.588Z,89.60
2023-04-19T13:03:33.178Z,91.80
2023-04-19T13:06:02.873Z,90.00
2023-04-19T13:08:44.291Z,92.50
2023-04-19T13:11:14.696Z,93.00
2023-04-19T13:13:42.954Z,91.20
2023-04-19T13:16:11.061Z,91.20
2023-04-19T13:18:39.122Z,91.30
2023-04-19T13:21:08.925Z,91.40
2023-04-19T13:23:37.090Z,92.10
2023-04-19T13:26:05.200Z,91.30
2023-04-19T13:28:35.599Z,91.20
2023-04-19T13:31:05.318Z,90.30
2023-04-19T13:33:33.326Z,90.50
2023-04-19T13:36:01.894Z,91.10
2023-04-19T13:38:31.166Z,91.70
2023-04-19T13:40:59.949Z,90.00
2023-04-19T13:43:27.902Z,90.40
2023-04-19T13:45:56.151Z,90.80
2023-04-19T13:48:24.209Z,87.90
2023-04-19T13:50:52.600Z,90.30
2023-04-19T13:53:20.827Z,90.50
2023-04-19T13:55:50.350Z,91.60
2023-04-19T13:58:18.294Z,90.00
2023-04-19T14:00:48.122Z,91.00
2023-04-19T14:03:16.173Z,90.70
2023-04-19T14:05:44.609Z,91.20
2023-04-19T14:08:12.591Z,93.40
2023-04-19T14:10:40.656Z,92.20
2023-04-19T14:13:10.320Z,90.50
2023-04-19T14:15:38.216Z,90.40
2023-04-19T14:18:06.402Z,90.50
2023-04-19T14:20:34.425Z,91.00
2023-04-19T14:23:02.689Z,88.50
2023-04-19T14:25:31.137Z,90.70
2023-04-19T14:27:59.693Z,91.20
2023-04-19T14:30:31.038Z,92.70
2023-04-19T14:32:59.181Z,91.40
2023-04-19T14:35:28.727Z,91.30
2023-04-19T14:37:56.631Z,91.10
2023-04-19T14:40:24.955Z,91.70
2023-04-19T14:42:53.286Z,90.60
2023-04-19T14:45:21.411Z,91.50
2023-04-19T14:47:50.701Z,92.30
2023-04-19T14:50:18.821Z,92.30
2023-04-19T14:52:46.738Z,92.60
2023-04-19T14:55:14.772Z,93.00
2023-04-19T14:57:42.649Z,92.90
2023-04-19T15:00:12.352Z,92.80
2023-04-19T15:02:40.348Z,93.70
2023-04-19T15:05:10.849Z,92.80
2023-04-19T15:07:39.828Z,92.50
2023-04-19T15:10:09.515Z,92.10
2023-04-19T15:12:37.737Z,92.40
2023-04-19T15:15:06.955Z,92.40
2023-04-19T15:17:35.040Z,90.80
2023-04-19T15:20:03.446Z,91.20
2023-04-19T15:22:34.016Z,92.40
2023-04-19T15:25:02.184Z,92.50
2023-04-19T15:27:31.228Z,92.60
2023-04-19T15:29:59.217Z,92.60
2023-04-19T15:32:29.035Z,92.80
2023-04-19T15:34:57.050Z,94.30
2023-04-19T15:37:25.057Z,93.70
2023-04-19T15:39:54.254Z,94.70
2023-04-19T15:42:22.453Z,94.70
2023-04-19T15:44:50.310Z,94.10
2023-04-19T15:47:18.346Z,94.90
2023-04-19T15:49:47.326Z,93.80
2023-04-19T15:52:15.353Z,92.80
2023-04-19T15:54:43.193Z,92.30
2023-04-19T15:57:12.561Z,92.50
2023-04-19T15:59:40.460Z,92.00
2023-04-19T16:02:08.434Z,92.20
2023-04-19T16:04:37.089Z,93.20
2023-04-19T16:07:05.221Z,92.70
2023-04-19T16:09:33.118Z,94.60
2023-04-19T16:12:01.357Z,94.40
2023-04-19T16:14:30.536Z,94.60
2023-04-19T16:17:01.827Z,95.60
2023-04-19T16:19:29.723Z,94.90
2023-04-19T16:21:58.280Z,95.40
2023-04-19T16:24:26.165Z,95.60
2023-04-19T16:26:54.047Z,94.80
2023-04-19T16:29:21.917Z,94.50
2023-04-19T16:31:52.287Z,95.60
2023-04-19T16:34:21.219Z,92.10
2023-04-19T16:36:49.184Z,91.30
2023-04-19T16:39:17.217Z,91.90
2023-04-19T16:41:45.633Z,92.90
2023-04-19T16:44:13.581Z,92.00
2023-04-19T16:46:41.548Z,90.00
2023-04-19T16:49:11.899Z,90.60
2023-04-19T16:51:40.269Z,90.10
2023-04-19T16:54:08.197Z,90.00
2023-04-19T16:56:36.189Z,90.10
2023-04-19T16:59:04.272Z,86.40
2023-04-19T17:01:32.208Z,87.00
2023-04-19T17:04:00.635Z,88.90
2023-04-19T17:06:30.181Z,87.00
2023-04-19T17:08:58.024Z,86.10
2023-04-19T17:11:25.942Z,86.00
2023-04-19T17:13:56.014Z,86.50
2023-04-19T17:16:25.033Z,84.80
2023-04-19T17:18:57.233Z,83.90
2023-04-19T17:21:25.809Z,83.30
2023-04-19T17:23:55.165Z,84.00
2023-04-19T17:26:23.158Z,84.40
2023-04-19T17:28:51.005Z,84.40
2023-04-19T17:31:18.935Z,85.30
2023-04-19T17:33:46.819Z,85.30
2023-04-19T17:36:14.742Z,85.60
2023-04-19T17:38:42.609Z,84.50
2023-04-19T17:41:16.036Z,84.50
2023-04-19T17:43:44.031Z,87.30
2023-04-19T17:46:12.655Z,90.40
2023-04-19T17:48:40.769Z,92.60
2023-04-19T17:51:08.965Z,94.80
2023-04-19T17:53:36.840Z,98.70
2023-04-19T17:56:05.328Z,99.90
2023-04-19T17:58:36.142Z,99.90
2023-04-19T18:01:04.268Z,99.90
2023-04-19T18:03:32.616Z,99.90
2023-04-19T18:06:00.654Z,99.90
2023-04-19T18:08:28.506Z,99.90
2023-04-19T18:10:56.375Z,99.90
2023-04-19T18:13:24.267Z,99.90
2023-04-19T18:15:53.675Z,99.90
2023-04-19T18:18:21.647Z,99.90
2023-04-19T18:20:49.731Z,99.90
2023-04-19T18:23:17.857Z,99.90
2023-04-19T18:25:53.828Z,99.90
2023-04-19T18:28:21.851Z,99.90
2023-04-19T18:30:49.705Z,99.90
2023-04-19T18:33:19.241Z,99.90
2023-04-19T18:35:47.576Z,99.90
2023-04-19T18:38:15.809Z,99.90
2023-04-19T18:40:43.762Z,99.90
2023-04-19T18:43:11.662Z,99.90
2023-04-19T18:45:39.538Z,99.90
2023-04-19T18:48:07.865Z,99.90
2023-04-19T18:50:37.874Z,99.90
2023-04-19T18:53:05.801Z,99.90
2023-04-19T18:55:34.131Z,99.90
2023-04-19T18:58:02.091Z,99.90
2023-04-19T19:00:30.387Z,99.90
2023-04-19T19:03:00.534Z,99.90
2023-04-19T19:05:30.421Z,99.90
2023-04-19T19:08:00.356Z,99.90
2023-04-19T19:10:48.571Z,99.90
2023-04-19T19:13:16.222Z,99.90
2023-04-19T19:15:44.376Z,99.90
2023-04-19T19:18:12.334Z,99.90
2023-04-19T19:20:40.237Z,99.90
2023-04-19T19:23:09.396Z,99.90
2023-04-19T19:25:37.272Z,99.90
2023-04-19T19:28:09.730Z,99.90
2023-04-19T19:30:39.864Z,99.90
2023-04-19T19:33:08.137Z,99.90
2023-04-19T19:35:36.075Z,99.90
2023-04-19T19:38:04.415Z,99.90
2023-04-19T19:40:33.938Z,99.90
2023-04-19T19:43:03.026Z,99.90
2023-04-19T19:45:32.035Z,99.90
2023-04-19T19:48:00.906Z,99.90
2023-04-19T19:53:01.155Z,99.90
2023-04-19T19:55:29.966Z,99.90
2023-04-19T20:03:01.636Z,99.90
2023-04-19T20:05:30.253Z,99.90
2023-04-19T20:08:08.505Z,99.90
2023-04-19T20:10:39.278Z,99.90
2023-04-19T20:13:09.278Z,99.90
2023-04-19T20:15:38.773Z,99.90
2023-04-19T20:18:08.235Z,99.90
2023-04-19T20:20:37.565Z,99.90
2023-04-19T20:23:06.021Z,99.90
2023-04-19T20:25:34.055Z,99.90
2023-04-19T20:28:03.363Z,99.90
2023-04-19T20:30:32.900Z,99.90
2023-04-19T20:33:03.799Z,99.90
2023-04-19T20:35:34.452Z,99.90
2023-04-19T20:38:03.250Z,99.90
2023-04-19T20:40:33.032Z,99.90
2023-04-19T20:43:00.923Z,99.90
2023-04-19T20:45:29.755Z,99.90
2023-04-19T20:47:59.687Z,99.90
2023-04-19T20:50:27.747Z,99.90
2023-04-19T20:52:56.545Z,99.90
2023-04-19T20:55:25.094Z,99.90
2023-04-19T20:57:53.254Z,99.90
2023-04-19T21:00:21.449Z,99.90
2023-04-19T21:02:50.053Z,99.90
2023-04-19T21:05:19.951Z,99.90
2023-04-19T21:07:47.801Z,99.90
2023-04-19T21:10:17.144Z,99.90
2023-04-19T21:12:45.095Z,99.90
2023-04-19T21:15:12.984Z,99.90
2023-04-19T21:17:41.089Z,99.90
2023-04-19T21:20:13.977Z,99.90
2023-04-19T21:22:45.128Z,99.90
2023-04-19T21:25:14.013Z,99.90
2023-04-19T21:27:43.148Z,99.90
2023-04-19T21:30:14.065Z,99.90
2023-04-19T21:32:42.073Z,99.90
2023-04-19T21:35:10.793Z,99.90
2023-04-19T21:37:38.680Z,99.90
2023-04-19T21:40:09.467Z,99.90
2023-04-19T21:42:37.379Z,99.90
2023-04-19T21:45:06.562Z,99.90
2023-04-19T21:47:34.548Z,99.90
2023-04-19T21:50:02.424Z,99.90
2023-04-19T21:52:30.318Z,99.90
2023-04-19T21:54:58.180Z,99.90
2023-04-19T21:57:27.533Z,99.90
2023-04-19T21:59:55.443Z,99.90
2023-04-19T22:02:23.901Z,99.90
2023-04-19T22:04:52.686Z,99.90
2023-04-19T22:07:20.695Z,99.90
2023-04-19T22:09:48.681Z,99.90
2023-04-19T22:12:16.569Z,99.90
2023-04-19T22:14:45.826Z,99.90
2023-04-19T22:17:14.195Z,99.90
2023-04-19T22:19:42.349Z,99.90
2023-04-19T22:22:10.271Z,99.90
2023-04-19T22:24:50.005Z,99.90
2023-04-19T22:27:25.855Z,99.90
2023-04-19T22:29:55.101Z,99.90
2023-04-19T22:32:23.244Z,99.90
2023-04-19T22:34:51.499Z,99.90
2023-04-19T22:37:19.393Z,99.90
2023-04-19T22:39:47.523Z,99.90
2023-04-19T22:42:15.518Z,99.90
2023-04-19T22:44:43.482Z,99.90
2023-04-19T22:47:13.130Z,99.90
2023-04-19T22:49:43.046Z,99.90
2023-04-19T22:52:12.705Z,99.90
2023-04-19T22:54:40.730Z,99.90
2023-04-19T22:57:08.631Z,99.90
2023-04-19T22:59:36.491Z,99.90
2023-04-19T23:02:04.725Z,99.90
2023-04-19T23:04:36.093Z,99.90
2023-04-19T23:07:07.256Z,99.90
2023-04-19T23:09:38.829Z,99.90
2023-04-19T23:12:08.197Z,99.90
2023-04-19T23:14:38.424Z,99.90
2023-04-19T23:17:06.411Z,99.90
2023-04-19T23:19:36.533Z,99.90
2023-04-19T23:22:04.514Z,99.90
2023-04-19T23:24:32.369Z,99.90
2023-04-19T23:27:01.727Z,99.90
2023-04-19T23:29:29.740Z,99.90
2023-04-19T23:31:58.715Z,99.90
2023-04-19T23:34:26.601Z,99.90
2023-04-19T23:36:56.619Z,99.90
2023-04-19T23:39:24.664Z,99.90
2023-04-19T23:41:52.516Z,99.90
2023-04-19T23:44:20.377Z,99.90
2023-04-19T23:46:48.624Z,99.90
2023-04-19T23:49:16.963Z,99.90
2023-04-19T23:51:45.029Z,99.90
2023-04-19T23:54:14.509Z,99.90
2023-04-19T23:56:43.396Z,99.90
2023-04-19T23:59:11.297Z,99.90
